sensor_id;sensor_type;location;lat;lon;timestamp;temperature;humidity
12049;DHT22;6085;49.452;8.502;2023-02-13T00:01:30;0.10;99.90
12049;DHT22;6085;49.452;8.502;2023-02-13T00:05:32;0.00;99.90
12049;DHT22;6085;49.452;8.502;2023-02-13T00:09:35;0.10;99.90
12049;DHT22;6085;49.452;8.502;2023-02-13T00:13:37;0.10;99.90
12049;DHT22;6085;49.452;8.502;2023-02-13T00:17:39;0.10;99.90
12049;DHT22;6085;49.452;8.502;2023-02-13T00:21:41;0.10;99.90
12049;DHT22;6085;49.452;8.502;2023-02-13T00:25:44;0.00;99.90
12049;DHT22;6085;49.452;8.502;2023-02-13T00:29:46;0.10;99.90
12049;DHT22;6085;49.452;8.502;2023-02-13T00:33:48;0.00;99.90
12049;DHT22;6085;49.452;8.502;2023-02-13T00:37:49;0.00;99.90
12049;DHT22;6085;49.452;8.502;2023-02-13T00:41:53;0.00;99.90
12049;DHT22;6085;49.452;8.502;2023-02-13T00:45:54;0.00;99.90
12049;DHT22;6085;49.452;8.502;2023-02-13T00:49:58;-0.10;99.90
12049;DHT22;6085;49.452;8.502;2023-02-13T00:53:59;-0.20;99.90
12049;DHT22;6085;49.452;8.502;2023-02-13T00:58:03;-0.20;99.90
12049;DHT22;6085;49.452;8.502;2023-02-13T01:02:05;-0.10;99.90
12049;DHT22;6085;49.452;8.502;2023-02-13T01:06:07;-0.20;99.90
12049;DHT22;6085;49.452;8.502;2023-02-13T01:10:09;-0.20;99.90
12049;DHT22;6085;49.452;8.502;2023-02-13T01:14:13;-0.20;99.90
12049;DHT22;6085;49.452;8.502;2023-02-13T01:18:17;-0.20;99.90
12049;DHT22;6085;49.452;8.502;2023-02-13T01:22:19;-0.10;99.90
12049;DHT22;6085;49.452;8.502;2023-02-13T01:26:23;-0.10;99.90
12049;DHT22;6085;49.452;8.502;2023-02-13T01:30:26;-0.10;99.90
12049;DHT22;6085;49.452;8.502;2023-02-13T01:34:28;-0.20;99.90
12049;DHT22;6085;49.452;8.502;2023-02-13T01:38:30;-0.30;99.90
12049;DHT22;6085;49.452;8.502;2023-02-13T01:42:33;-0.30;99.90
12049;DHT22;6085;49.452;8.502;2023-02-13T01:46:40;-0.40;99.90
12049;DHT22;6085;49.452;8.502;2023-02-13T01:50:46;-0.40;99.90
12049;DHT22;6085;49.452;8.502;2023-02-13T01:54:49;-0.30;99.90
12049;DHT22;6085;49.452;8.502;2023-02-13T01:58:53;-0.30;99.90
12049;DHT22;6085;49.452;8.502;2023-02-13T02:03:01;-0.20;99.90
12049;DHT22;6085;49.452;8.502;2023-02-13T02:07:07;-0.10;99.90
12049;DHT22;6085;49.452;8.502;2023-02-13T02:11:14;-0.20;99.90
12049;DHT22;6085;49.452;8.502;2023-02-13T02:15:18;-0.10;99.90
12049;DHT22;6085;49.452;8.502;2023-02-13T02:19:31;0.00;99.90
12049;DHT22;6085;49.452;8.502;2023-02-13T02:23:51;-0.10;99.90
12049;DHT22;6085;49.452;8.502;2023-02-13T02:28:23;-0.10;99.90
12049;DHT22;6085;49.452;8.502;2023-02-13T02:32:43;-0.10;99.90
12049;DHT22;6085;49.452;8.502;2023-02-13T02:37:02;-0.20;99.90
12049;DHT22;6085;49.452;8.502;2023-02-13T02:41:09;-0.30;99.90
12049;DHT22;6085;49.452;8.502;2023-02-13T02:45:38;-0.30;99.90
12049;DHT22;6085;49.452;8.502;2023-02-13T02:49:50;-0.40;99.90
12049;DHT22;6085;49.452;8.502;2023-02-13T02:54:07;-0.50;99.90
12049;DHT22;6085;49.452;8.502;2023-02-13T02:58:34;-0.50;99.90
12049;DHT22;6085;49.452;8.502;2023-02-13T03:02:55;-0.40;99.90
12049;DHT22;6085;49.452;8.502;2023-02-13T03:07:17;-0.30;99.90
12049;DHT22;6085;49.452;8.502;2023-02-13T03:11:20;-0.30;99.90
12049;DHT22;6085;49.452;8.502;2023-02-13T03:15:42;-0.40;99.90
12049;DHT22;6085;49.452;8.502;2023-02-13T03:20:11;-0.50;99.90
12049;DHT22;6085;49.452;8.502;2023-02-13T03:24:40;-0.70;99.90
12049;DHT22;6085;49.452;8.502;2023-02-13T03:28:51;-0.70;99.90
12049;DHT22;6085;49.452;8.502;2023-02-13T03:33:26;-0.70;99.90
12049;DHT22;6085;49.452;8.502;2023-02-13T03:37:34;-0.70;99.90
12049;DHT22;6085;49.452;8.502;2023-02-13T03:42:01;-0.90;99.90
12049;DHT22;6085;49.452;8.502;2023-02-13T03:46:05;-1.00;99.90
12049;DHT22;6085;49.452;8.502;2023-02-13T03:50:09;-1.10;99.90
12049;DHT22;6085;49.452;8.502;2023-02-13T03:54:15;-1.20;99.90
12049;DHT22;6085;49.452;8.502;2023-02-13T03:58:23;-1.00;99.90
12049;DHT22;6085;49.452;8.502;2023-02-13T04:02:50;-0.90;99.90
12049;DHT22;6085;49.452;8.502;2023-02-13T04:06:55;-1.00;99.90
12049;DHT22;6085;49.452;8.502;2023-02-13T04:11:05;-1.10;99.90
12049;DHT22;6085;49.452;8.502;2023-02-13T04:15:13;-1.10;99.90
12049;DHT22;6085;49.452;8.502;2023-02-13T04:19:16;-1.10;99.90
12049;DHT22;6085;49.452;8.502;2023-02-13T04:23:18;-1.10;99.90
12049;DHT22;6085;49.452;8.502;2023-02-13T04:27:20;-1.20;99.90
12049;DHT22;6085;49.452;8.502;2023-02-13T04:31:25;-1.30;99.90
12049;DHT22;6085;49.452;8.502;2023-02-13T04:35:27;-1.30;99.90
12049;DHT22;6085;49.452;8.502;2023-02-13T04:39:29;-1.30;99.90
12049;DHT22;6085;49.452;8.502;2023-02-13T04:43:31;-1.30;99.90
12049;DHT22;6085;49.452;8.502;2023-02-13T04:47:34;-1.40;99.90
12049;DHT22;6085;49.452;8.502;2023-02-13T04:51:36;-1.40;99.90
12049;DHT22;6085;49.452;8.502;2023-02-13T04:55:38;-1.50;99.90
12049;DHT22;6085;49.452;8.502;2023-02-13T04:59:40;-1.50;99.90
12049;DHT22;6085;49.452;8.502;2023-02-13T05:03:43;-1.40;99.90
12049;DHT22;6085;49.452;8.502;2023-02-13T05:07:45;-1.50;99.90
12049;DHT22;6085;49.452;8.502;2023-02-13T05:11:50;-1.60;99.90
12049;DHT22;6085;49.452;8.502;2023-02-13T05:15:52;-1.70;99.90
12049;DHT22;6085;49.452;8.502;2023-02-13T05:19:56;-1.80;99.90
12049;DHT22;6085;49.452;8.502;2023-02-13T05:23:58;-1.90;99.90
12049;DHT22;6085;49.452;8.502;2023-02-13T05:28:00;-2.00;99.90
12049;DHT22;6085;49.452;8.502;2023-02-13T05:32:03;-2.00;99.90
12049;DHT22;6085;49.452;8.502;2023-02-13T05:36:07;-2.00;99.90
12049;DHT22;6085;49.452;8.502;2023-02-13T05:40:10;-2.10;99.90
12049;DHT22;6085;49.452;8.502;2023-02-13T05:44:13;-2.10;99.90
12049;DHT22;6085;49.452;8.502;2023-02-13T05:48:15;-2.10;99.90
12049;DHT22;6085;49.452;8.502;2023-02-13T05:52:18;-2.20;99.90
12049;DHT22;6085;49.452;8.502;2023-02-13T05:56:20;-2.20;99.90
12049;DHT22;6085;49.452;8.502;2023-02-13T06:00:22;-2.30;99.90
12049;DHT22;6085;49.452;8.502;2023-02-13T06:04:25;-2.30;99.90
12049;DHT22;6085;49.452;8.502;2023-02-13T06:08:28;-2.30;99.90
12049;DHT22;6085;49.452;8.502;2023-02-13T06:12:30;-2.40;99.90
12049;DHT22;6085;49.452;8.502;2023-02-13T06:16:32;-2.40;99.90
12049;DHT22;6085;49.452;8.502;2023-02-13T06:20:34;-2.40;99.90
12049;DHT22;6085;49.452;8.502;2023-02-13T06:24:37;-2.40;99.90
12049;DHT22;6085;49.452;8.502;2023-02-13T06:28:39;-2.40;99.90
12049;DHT22;6085;49.452;8.502;2023-02-13T06:32:42;-2.50;99.90
12049;DHT22;6085;49.452;8.502;2023-02-13T06:36:44;-2.40;99.90
12049;DHT22;6085;49.452;8.502;2023-02-13T06:40:48;-2.40;99.90
12049;DHT22;6085;49.452;8.502;2023-02-13T06:44:50;-2.40;99.90
12049;DHT22;6085;49.452;8.502;2023-02-13T06:48:53;-2.40;99.90
12049;DHT22;6085;49.452;8.502;2023-02-13T06:52:55;-2.40;99.90
12049;DHT22;6085;49.452;8.502;2023-02-13T06:56:58;-2.30;99.90
12049;DHT22;6085;49.452;8.502;2023-02-13T07:01:00;-2.10;99.90
12049;DHT22;6085;49.452;8.502;2023-02-13T07:05:02;-1.90;99.90
12049;DHT22;6085;49.452;8.502;2023-02-13T07:09:04;-1.80;99.90
12049;DHT22;6085;49.452;8.502;2023-02-13T07:13:08;-1.60;99.90
12049;DHT22;6085;49.452;8.502;2023-02-13T07:17:10;-1.40;99.90
12049;DHT22;6085;49.452;8.502;2023-02-13T07:21:13;-1.20;99.90
12049;DHT22;6085;49.452;8.502;2023-02-13T07:25:15;-0.90;99.90
12049;DHT22;6085;49.452;8.502;2023-02-13T07:29:18;-0.70;99.90
12049;DHT22;6085;49.452;8.502;2023-02-13T07:33:20;-0.40;99.90
12049;DHT22;6085;49.452;8.502;2023-02-13T07:37:22;-0.30;99.90
12049;DHT22;6085;49.452;8.502;2023-02-13T07:41:24;-0.10;99.90
12049;DHT22;6085;49.452;8.502;2023-02-13T07:45:27;-0.10;99.90
12049;DHT22;6085;49.452;8.502;2023-02-13T07:49:29;0.00;99.90
12049;DHT22;6085;49.452;8.502;2023-02-13T07:53:31;0.10;99.90
12049;DHT22;6085;49.452;8.502;2023-02-13T07:57:33;0.20;99.90
12049;DHT22;6085;49.452;8.502;2023-02-13T08:01:36;0.40;99.90
12049;DHT22;6085;49.452;8.502;2023-02-13T08:05:38;0.70;99.90
12049;DHT22;6085;49.452;8.502;2023-02-13T08:09:42;0.80;99.90
12049;DHT22;6085;49.452;8.502;2023-02-13T08:14:01;1.00;99.90
12049;DHT22;6085;49.452;8.502;2023-02-13T08:18:05;1.10;99.90
12049;DHT22;6085;49.452;8.502;2023-02-13T08:22:06;1.40;99.90
12049;DHT22;6085;49.452;8.502;2023-02-13T08:26:08;1.70;99.90
12049;DHT22;6085;49.452;8.502;2023-02-13T08:30:11;1.90;99.90
12049;DHT22;6085;49.452;8.502;2023-02-13T08:34:16;2.20;99.90
12049;DHT22;6085;49.452;8.502;2023-02-13T08:38:18;2.60;99.90
12049;DHT22;6085;49.452;8.502;2023-02-13T08:42:20;3.20;99.90
12049;DHT22;6085;49.452;8.502;2023-02-13T08:46:22;3.90;99.90
12049;DHT22;6085;49.452;8.502;2023-02-13T08:50:26;5.30;99.90
12049;DHT22;6085;49.452;8.502;2023-02-13T08:54:28;6.90;99.90
12049;DHT22;6085;49.452;8.502;2023-02-13T08:58:30;7.80;99.90
12049;DHT22;6085;49.452;8.502;2023-02-13T09:02:32;8.90;99.90
12049;DHT22;6085;49.452;8.502;2023-02-13T09:06:35;10.40;99.90
12049;DHT22;6085;49.452;8.502;2023-02-13T09:10:37;12.50;99.90
12049;DHT22;6085;49.452;8.502;2023-02-13T09:14:40;13.60;99.90
12049;DHT22;6085;49.452;8.502;2023-02-13T09:18:41;14.00;99.90
12049;DHT22;6085;49.452;8.502;2023-02-13T09:22:45;14.70;99.90
12049;DHT22;6085;49.452;8.502;2023-02-13T09:26:46;14.90;99.90
12049;DHT22;6085;49.452;8.502;2023-02-13T09:30:48;15.70;99.90
12049;DHT22;6085;49.452;8.502;2023-02-13T09:34:50;17.00;99.90
12049;DHT22;6085;49.452;8.502;2023-02-13T09:38:55;16.60;99.90
12049;DHT22;6085;49.452;8.502;2023-02-13T09:43:07;15.00;99.90
12049;DHT22;6085;49.452;8.502;2023-02-13T09:47:15;13.90;99.90
12049;DHT22;6085;49.452;8.502;2023-02-13T09:51:20;13.40;99.90
12049;DHT22;6085;49.452;8.502;2023-02-13T09:55:30;11.70;99.90
12049;DHT22;6085;49.452;8.502;2023-02-13T09:59:44;9.70;99.90
12049;DHT22;6085;49.452;8.502;2023-02-13T10:04:13;8.70;99.90
12049;DHT22;6085;49.452;8.502;2023-02-13T10:08:24;8.20;99.90
12049;DHT22;6085;49.452;8.502;2023-02-13T10:12:49;7.90;99.90
12049;DHT22;6085;49.452;8.502;2023-02-13T10:16:59;7.70;99.90
12049;DHT22;6085;49.452;8.502;2023-02-13T10:21:03;7.40;99.90
12049;DHT22;6085;49.452;8.502;2023-02-13T10:25:11;8.00;99.90
12049;DHT22;6085;49.452;8.502;2023-02-13T10:29:21;8.30;99.90
12049;DHT22;6085;49.452;8.502;2023-02-13T10:33:48;8.80;99.90
12049;DHT22;6085;49.452;8.502;2023-02-13T10:37:53;9.10;99.90
12049;DHT22;6085;49.452;8.502;2023-02-13T10:42:02;8.60;99.90
12049;DHT22;6085;49.452;8.502;2023-02-13T10:46:13;9.10;99.90
12049;DHT22;6085;49.452;8.502;2023-02-13T10:50:22;10.10;99.90
12049;DHT22;6085;49.452;8.502;2023-02-13T10:54:39;11.00;99.90
12049;DHT22;6085;49.452;8.502;2023-02-13T10:58:53;11.30;99.90
12049;DHT22;6085;49.452;8.502;2023-02-13T11:02:59;11.50;99.90
12049;DHT22;6085;49.452;8.502;2023-02-13T11:07:11;10.90;99.90
12049;DHT22;6085;49.452;8.502;2023-02-13T11:11:34;11.70;99.90
12049;DHT22;6085;49.452;8.502;2023-02-13T11:15:37;14.20;99.90
12049;DHT22;6085;49.452;8.502;2023-02-13T11:19:48;15.00;99.90
12049;DHT22;6085;49.452;8.502;2023-02-13T11:23:52;13.00;99.90
12049;DHT22;6085;49.452;8.502;2023-02-13T11:28:07;13.30;99.90
12049;DHT22;6085;49.452;8.502;2023-02-13T11:32:21;15.20;99.90
12049;DHT22;6085;49.452;8.502;2023-02-13T11:36:26;16.80;99.90
12049;DHT22;6085;49.452;8.502;2023-02-13T11:40:30;16.50;99.90
12049;DHT22;6085;49.452;8.502;2023-02-13T11:44:32;16.70;99.90
12049;DHT22;6085;49.452;8.502;2023-02-13T11:48:34;16.60;99.90
12049;DHT22;6085;49.452;8.502;2023-02-13T11:52:37;15.80;99.90
12049;DHT22;6085;49.452;8.502;2023-02-13T11:56:47;16.90;99.90
12049;DHT22;6085;49.452;8.502;2023-02-13T12:00:49;17.80;99.90
12049;DHT22;6085;49.452;8.502;2023-02-13T12:05:16;16.30;99.90
12049;DHT22;6085;49.452;8.502;2023-02-13T12:09:20;15.20;99.90
12049;DHT22;6085;49.452;8.502;2023-02-13T12:13:26;15.70;99.90
12049;DHT22;6085;49.452;8.502;2023-02-13T12:17:29;16.00;99.90
12049;DHT22;6085;49.452;8.502;2023-02-13T12:26:19;16.00;99.90
12049;DHT22;6085;49.452;8.502;2023-02-13T12:30:48;16.40;99.90
12049;DHT22;6085;49.452;8.502;2023-02-13T12:35:13;16.40;99.90
12049;DHT22;6085;49.452;8.502;2023-02-13T12:39:29;15.70;99.90
12049;DHT22;6085;49.452;8.502;2023-02-13T12:44:10;15.60;99.90
12049;DHT22;6085;49.452;8.502;2023-02-13T12:48:27;15.70;99.90
12049;DHT22;6085;49.452;8.502;2023-02-13T12:52:49;15.70;99.90
12049;DHT22;6085;49.452;8.502;2023-02-13T12:57:09;15.60;99.90
12049;DHT22;6085;49.452;8.502;2023-02-13T13:01:23;15.50;99.90
12049;DHT22;6085;49.452;8.502;2023-02-13T13:05:35;15.40;99.90
12049;DHT22;6085;49.452;8.502;2023-02-13T13:10:14;15.60;99.90
12049;DHT22;6085;49.452;8.502;2023-02-13T13:14:24;16.00;99.90
12049;DHT22;6085;49.452;8.502;2023-02-13T13:18:37;16.30;99.90
12049;DHT22;6085;49.452;8.502;2023-02-13T13:22:43;16.80;99.90
12049;DHT22;6085;49.452;8.502;2023-02-13T13:26:49;17.20;99.90
12049;DHT22;6085;49.452;8.502;2023-02-13T13:30:54;17.50;99.90
12049;DHT22;6085;49.452;8.502;2023-02-13T13:34:59;18.10;99.90
12049;DHT22;6085;49.452;8.502;2023-02-13T13:39:05;18.50;99.90
12049;DHT22;6085;49.452;8.502;2023-02-13T13:43:18;18.70;99.90
12049;DHT22;6085;49.452;8.502;2023-02-13T13:47:36;18.70;99.90
12049;DHT22;6085;49.452;8.502;2023-02-13T13:51:42;18.90;99.70
12049;DHT22;6085;49.452;8.502;2023-02-13T13:56:02;19.30;98.70
12049;DHT22;6085;49.452;8.502;2023-02-13T14:00:24;19.70;97.90
12049;DHT22;6085;49.452;8.502;2023-02-13T14:04:39;19.20;97.90
12049;DHT22;6085;49.452;8.502;2023-02-13T14:13:34;18.60;98.40
12049;DHT22;6085;49.452;8.502;2023-02-13T14:17:52;18.40;98.50
12049;DHT22;6085;49.452;8.502;2023-02-13T14:22:25;18.10;99.00
12049;DHT22;6085;49.452;8.502;2023-02-13T14:26:31;17.30;99.50
12049;DHT22;6085;49.452;8.502;2023-02-13T14:30:37;17.40;99.90
12049;DHT22;6085;49.452;8.502;2023-02-13T14:34:39;18.10;99.60
12049;DHT22;6085;49.452;8.502;2023-02-13T14:38:41;18.10;98.90
12049;DHT22;6085;49.452;8.502;2023-02-13T14:42:46;17.20;99.90
12049;DHT22;6085;49.452;8.502;2023-02-13T14:46:51;17.00;99.90
12049;DHT22;6085;49.452;8.502;2023-02-13T14:55:56;17.70;99.90
12049;DHT22;6085;49.452;8.502;2023-02-13T15:00:04;17.90;99.80
12049;DHT22;6085;49.452;8.502;2023-02-13T15:04:15;17.80;99.50
12049;DHT22;6085;49.452;8.502;2023-02-13T15:08:20;16.90;99.90
12049;DHT22;6085;49.452;8.502;2023-02-13T15:12:28;16.80;99.90
12049;DHT22;6085;49.452;8.502;2023-02-13T15:16:31;16.30;99.90
12049;DHT22;6085;49.452;8.502;2023-02-13T15:20:38;15.30;99.90
12049;DHT22;6085;49.452;8.502;2023-02-13T15:24:45;14.60;99.90
12049;DHT22;6085;49.452;8.502;2023-02-13T15:28:57;14.60;99.90
12049;DHT22;6085;49.452;8.502;2023-02-13T15:33:01;14.80;99.90
12049;DHT22;6085;49.452;8.502;2023-02-13T15:37:04;14.70;99.90
12049;DHT22;6085;49.452;8.502;2023-02-13T15:41:10;14.40;99.90
12049;DHT22;6085;49.452;8.502;2023-02-13T15:45:16;13.90;99.90
12049;DHT22;6085;49.452;8.502;2023-02-13T15:49:21;13.00;99.90
12049;DHT22;6085;49.452;8.502;2023-02-13T15:53:24;12.10;99.90
12049;DHT22;6085;49.452;8.502;2023-02-13T15:57:26;11.50;99.90
12049;DHT22;6085;49.452;8.502;2023-02-13T16:01:30;11.00;99.90
12049;DHT22;6085;49.452;8.502;2023-02-13T16:05:36;10.70;99.90
12049;DHT22;6085;49.452;8.502;2023-02-13T16:09:41;10.40;99.90
12049;DHT22;6085;49.452;8.502;2023-02-13T16:14:07;10.00;99.90
12049;DHT22;6085;49.452;8.502;2023-02-13T16:18:17;9.70;99.90
12049;DHT22;6085;49.452;8.502;2023-02-13T16:22:30;9.40;99.90
12049;DHT22;6085;49.452;8.502;2023-02-13T16:26:35;9.30;99.90
12049;DHT22;6085;49.452;8.502;2023-02-13T16:30:40;9.00;99.90
12049;DHT22;6085;49.452;8.502;2023-02-13T16:34:42;8.70;99.90
12049;DHT22;6085;49.452;8.502;2023-02-13T16:38:46;8.40;99.90
12049;DHT22;6085;49.452;8.502;2023-02-13T16:42:50;8.00;99.90
12049;DHT22;6085;49.452;8.502;2023-02-13T16:46:54;7.70;99.90
12049;DHT22;6085;49.452;8.502;2023-02-13T16:50:57;7.30;99.90
12049;DHT22;6085;49.452;8.502;2023-02-13T16:54:59;7.00;99.90
12049;DHT22;6085;49.452;8.502;2023-02-13T16:59:17;6.70;99.90
12049;DHT22;6085;49.452;8.502;2023-02-13T17:03:21;6.50;99.90
12049;DHT22;6085;49.452;8.502;2023-02-13T17:07:25;6.30;99.90
12049;DHT22;6085;49.452;8.502;2023-02-13T17:11:27;6.20;99.90
12049;DHT22;6085;49.452;8.502;2023-02-13T17:15:31;6.00;99.90
12049;DHT22;6085;49.452;8.502;2023-02-13T17:19:33;5.80;99.90
12049;DHT22;6085;49.452;8.502;2023-02-13T17:23:35;5.70;99.90
12049;DHT22;6085;49.452;8.502;2023-02-13T17:27:37;5.50;99.90
12049;DHT22;6085;49.452;8.502;2023-02-13T17:31:40;5.30;99.90
12049;DHT22;6085;49.452;8.502;2023-02-13T17:35:42;5.10;99.90
12049;DHT22;6085;49.452;8.502;2023-02-13T17:39:45;5.10;99.90
12049;DHT22;6085;49.452;8.502;2023-02-13T17:43:47;4.90;99.90
12049;DHT22;6085;49.452;8.502;2023-02-13T17:47:50;4.70;99.90
12049;DHT22;6085;49.452;8.502;2023-02-13T17:51:52;4.50;99.90
12049;DHT22;6085;49.452;8.502;2023-02-13T17:55:54;4.30;99.90
12049;DHT22;6085;49.452;8.502;2023-02-13T17:59:56;4.10;99.90
12049;DHT22;6085;49.452;8.502;2023-02-13T18:04:04;4.00;99.90
12049;DHT22;6085;49.452;8.502;2023-02-13T18:08:06;3.90;99.90
12049;DHT22;6085;49.452;8.502;2023-02-13T18:12:12;3.80;99.90
12049;DHT22;6085;49.452;8.502;2023-02-13T18:16:15;3.70;99.90
12049;DHT22;6085;49.452;8.502;2023-02-13T18:20:19;3.60;99.90
12049;DHT22;6085;49.452;8.502;2023-02-13T18:24:22;3.60;99.90
12049;DHT22;6085;49.452;8.502;2023-02-13T18:28:30;3.50;99.90
12049;DHT22;6085;49.452;8.502;2023-02-13T18:32:32;3.40;99.90
12049;DHT22;6085;49.452;8.502;2023-02-13T18:36:36;3.30;99.90
12049;DHT22;6085;49.452;8.502;2023-02-13T18:40:38;3.20;99.90
12049;DHT22;6085;49.452;8.502;2023-02-13T18:44:41;3.20;99.90
12049;DHT22;6085;49.452;8.502;2023-02-13T18:48:42;3.10;99.90
12049;DHT22;6085;49.452;8.502;2023-02-13T18:52:46;3.00;99.90
12049;DHT22;6085;49.452;8.502;2023-02-13T18:56:48;2.90;99.90
12049;DHT22;6085;49.452;8.502;2023-02-13T19:00:50;2.80;99.90
12049;DHT22;6085;49.452;8.502;2023-02-13T19:04:52;2.70;99.90
12049;DHT22;6085;49.452;8.502;2023-02-13T19:08:56;2.60;99.90
12049;DHT22;6085;49.452;8.502;2023-02-13T19:12:58;2.50;99.90
12049;DHT22;6085;49.452;8.502;2023-02-13T19:17:00;2.40;99.90
12049;DHT22;6085;49.452;8.502;2023-02-13T19:21:03;2.20;99.90
12049;DHT22;6085;49.452;8.502;2023-02-13T19:25:07;2.10;99.90
12049;DHT22;6085;49.452;8.502;2023-02-13T19:29:09;2.10;99.90
12049;DHT22;6085;49.452;8.502;2023-02-13T19:33:11;2.00;99.90
12049;DHT22;6085;49.452;8.502;2023-02-13T19:37:12;2.00;99.90
12049;DHT22;6085;49.452;8.502;2023-02-13T19:41:16;1.90;99.90
12049;DHT22;6085;49.452;8.502;2023-02-13T19:45:19;1.80;99.90
12049;DHT22;6085;49.452;8.502;2023-02-13T19:49:21;1.70;99.90
12049;DHT22;6085;49.452;8.502;2023-02-13T19:53:23;1.70;99.90
12049;DHT22;6085;49.452;8.502;2023-02-13T19:57:26;1.80;99.90
12049;DHT22;6085;49.452;8.502;2023-02-13T20:01:28;1.80;99.90
12049;DHT22;6085;49.452;8.502;2023-02-13T20:05:30;1.70;99.90
12049;DHT22;6085;49.452;8.502;2023-02-13T20:09:33;1.60;99.90
12049;DHT22;6085;49.452;8.502;2023-02-13T20:13:38;1.50;99.90
12049;DHT22;6085;49.452;8.502;2023-02-13T20:17:40;1.40;99.90
12049;DHT22;6085;49.452;8.502;2023-02-13T20:21:42;1.30;99.90
12049;DHT22;6085;49.452;8.502;2023-02-13T20:25:45;1.30;99.90
12049;DHT22;6085;49.452;8.502;2023-02-13T20:29:48;1.20;99.90
12049;DHT22;6085;49.452;8.502;2023-02-13T20:33:50;1.10;99.90
12049;DHT22;6085;49.452;8.502;2023-02-13T20:37:52;1.10;99.90
12049;DHT22;6085;49.452;8.502;2023-02-13T20:41:54;1.00;99.90
12049;DHT22;6085;49.452;8.502;2023-02-13T20:45:57;0.90;99.90
12049;DHT22;6085;49.452;8.502;2023-02-13T20:49:59;0.80;99.90
12049;DHT22;6085;49.452;8.502;2023-02-13T20:54:02;0.80;99.90
12049;DHT22;6085;49.452;8.502;2023-02-13T20:58:04;0.80;99.90
12049;DHT22;6085;49.452;8.502;2023-02-13T21:02:08;0.80;99.90
12049;DHT22;6085;49.452;8.502;2023-02-13T21:06:11;0.80;99.90
12049;DHT22;6085;49.452;8.502;2023-02-13T21:10:12;0.80;99.90
12049;DHT22;6085;49.452;8.502;2023-02-13T21:14:14;0.60;99.90
12049;DHT22;6085;49.452;8.502;2023-02-13T21:18:18;0.50;99.90
12049;DHT22;6085;49.452;8.502;2023-02-13T21:22:20;0.40;99.90
12049;DHT22;6085;49.452;8.502;2023-02-13T21:26:23;0.40;99.90
12049;DHT22;6085;49.452;8.502;2023-02-13T21:30:25;0.50;99.90
12049;DHT22;6085;49.452;8.502;2023-02-13T21:34:28;0.50;99.90
12049;DHT22;6085;49.452;8.502;2023-02-13T21:38:30;0.40;99.90
12049;DHT22;6085;49.452;8.502;2023-02-13T21:42:32;0.40;99.90
12049;DHT22;6085;49.452;8.502;2023-02-13T21:46:34;0.40;99.90
12049;DHT22;6085;49.452;8.502;2023-02-13T21:50:37;0.40;99.90
12049;DHT22;6085;49.452;8.502;2023-02-13T21:54:39;0.50;99.90
12049;DHT22;6085;49.452;8.502;2023-02-13T21:58:42;0.70;99.90
12049;DHT22;6085;49.452;8.502;2023-02-13T22:02:44;1.00;99.90
12049;DHT22;6085;49.452;8.502;2023-02-13T22:06:48;1.00;99.90
12049;DHT22;6085;49.452;8.502;2023-02-13T22:10:53;1.00;99.90
12049;DHT22;6085;49.452;8.502;2023-02-13T22:14:56;0.90;99.90
12049;DHT22;6085;49.452;8.502;2023-02-13T22:18:58;1.00;99.90
12049;DHT22;6085;49.452;8.502;2023-02-13T22:23:01;1.00;99.90
12049;DHT22;6085;49.452;8.502;2023-02-13T22:27:03;1.10;99.90
12049;DHT22;6085;49.452;8.502;2023-02-13T22:31:07;1.30;99.90
12049;DHT22;6085;49.452;8.502;2023-02-13T22:35:09;1.50;99.90
12049;DHT22;6085;49.452;8.502;2023-02-13T22:39:12;1.60;99.90
12049;DHT22;6085;49.452;8.502;2023-02-13T22:43:14;1.60;99.90
12049;DHT22;6085;49.452;8.502;2023-02-13T22:47:16;1.70;99.90
12049;DHT22;6085;49.452;8.502;2023-02-13T22:51:19;1.80;99.90
12049;DHT22;6085;49.452;8.502;2023-02-13T22:55:23;1.80;99.90
12049;DHT22;6085;49.452;8.502;2023-02-13T22:59:25;1.80;99.90
12049;DHT22;6085;49.452;8.502;2023-02-13T23:03:30;1.70;99.90
12049;DHT22;6085;49.452;8.502;2023-02-13T23:07:32;1.60;99.90
12049;DHT22;6085;49.452;8.502;2023-02-13T23:11:35;1.60;99.90
12049;DHT22;6085;49.452;8.502;2023-02-13T23:15:54;1.60;99.90
12049;DHT22;6085;49.452;8.502;2023-02-13T23:19:56;1.60;99.90
12049;DHT22;6085;49.452;8.502;2023-02-13T23:23:58;1.80;99.90
12049;DHT22;6085;49.452;8.502;2023-02-13T23:28:01;1.90;99.90
12049;DHT22;6085;49.452;8.502;2023-02-13T23:32:04;1.90;99.90
12049;DHT22;6085;49.452;8.502;2023-02-13T23:36:06;1.80;99.90
12049;DHT22;6085;49.452;8.502;2023-02-13T23:40:10;1.70;99.90
12049;DHT22;6085;49.452;8.502;2023-02-13T23:44:14;1.60;99.90
12049;DHT22;6085;49.452;8.502;2023-02-13T23:48:15;1.40;99.90
12049;DHT22;6085;49.452;8.502;2023-02-13T23:52:17;1.50;99.90
12049;DHT22;6085;49.452;8.502;2023-02-13T23:56:19;1.50;99.90
